Esler, Louisiana
Current Conditions -  °F | °C
As of 10:53 AM on Thursday 27 Nov 2014 (Local Time) from KESF Reporting Station
Clear Clear  
Wind Chill: 55°   Ceiling: Unl
Heat Index: 55°   Visibility: 10mi
Dew Point: 30°   Wind: 10mph
Humidity: 38%   Direction: 350°N
Pressure: 30.5"   Gusts: 17mph
Location:  31.3398°N, 92.3739°W
Report Text: KESF 271653Z AUTO 35009G15KT 10SM CLR 13/M01 A3050 RMK AO2 SLP327 T01281011
Loading
Personal Weather Stations






























Interactive Weather Map New forecast layout! Learn more

10-Day Weather Forecast

Advertisements
Track Severe Weather on mobile